Time;durP1;ratioP1;P1;durP2;ratioP2;P2;SDS_P1;SDS_P2;PMS_P1;PMS_P2;Temp;Humidity;BMP_temperature;BMP_pressure;BME280_temperature;BME280_humidity;BME280_pressure;Samples;Min_cycle;Max_cycle;Signal;HPM_P1;HPM_P2
2023/12/07 00:02:13;;;;;;;174.10;59.20;;;;;;;-2.66;100.00;99465.08;103884;1283;60510;-30
2023/12/07 00:04:38;;;;;;;190.80;60.90;;;;;;;-2.62;100.00;99467.91;103837;1281;69369;-30
2023/12/07 00:07:04;;;;;;;186.90;60.00;;;;;;;-2.57;100.00;99467.73;103842;1283;60544;-29
2023/12/07 00:09:30;;;;;;;182.70;57.80;;;;;;;-2.58;100.00;99466.20;104046;1283;60705;-31
2023/12/07 00:11:56;;;;;;;1803.20;524.70;;;;;;;-2.58;100.00;99471.84;103840;1283;61082;-31
2023/12/07 00:14:22;;;;;;;1385.70;343.80;;;;;;;-2.60;100.00;99470.86;104024;1283;60571;-33
2023/12/07 00:16:48;;;;;;;1053.10;314.60;;;;;;;-2.55;100.00;99466.52;103619;1283;60482;-34
2023/12/07 00:19:14;;;;;;;308.60;79.70;;;;;;;-2.52;100.00;99464.73;103843;1282;60431;-32
2023/12/07 00:21:40;;;;;;;181.70;58.70;;;;;;;-2.52;100.00;99466.30;104067;1283;60561;-30
2023/12/07 00:24:06;;;;;;;322.40;117.70;;;;;;;-2.50;100.00;99468.77;103860;1285;60546;-31
2023/12/07 00:26:32;;;;;;;;;;;;;;;-2.60;100.00;99474.23;103969;1284;60619;-32
2023/12/07 00:28:58;;;;;;;208.70;71.80;;;;;;;-2.64;100.00;99473.62;103914;1283;60491;-30
2023/12/07 00:31:24;;;;;;;;;;;;;;;-2.61;100.00;99476.98;104086;1285;60377;-32
2023/12/07 00:33:49;;;;;;;202.80;72.70;;;;;;;-2.57;100.00;99476.09;103823;1283;73097;-32
2023/12/07 00:36:16;;;;;;;195.70;62.30;;;;;;;-2.54;100.00;99476.09;103778;1283;60590;-30
2023/12/07 00:38:42;;;;;;;179.90;61.10;;;;;;;-2.50;100.00;99477.19;103859;1285;60489;-32
2023/12/07 00:41:08;;;;;;;196.90;66.80;;;;;;;-2.57;100.00;99481.92;103890;1282;60565;-29
2023/12/07 00:43:33;;;;;;;201.50;69.80;;;;;;;-2.64;100.00;99481.34;103935;1282;60504;-32
2023/12/07 00:46:00;;;;;;;175.50;61.10;;;;;;;-2.64;100.00;99484.88;103943;1283;60578;-33
2023/12/07 00:48:25;;;;;;;;;;;;;;;-2.62;100.00;99486.86;103962;1284;61156;-32
2023/12/07 00:50:51;;;;;;;159.30;52.10;;;;;;;-2.58;100.00;99486.88;103865;1283;60469;-31
2023/12/07 00:53:17;;;;;;;283.60;105.80;;;;;;;-2.61;100.00;99489.89;103810;1285;60559;-30
2023/12/07 00:55:43;;;;;;;;;;;;;;;-2.65;100.00;99490.56;103980;1285;60546;-33
2023/12/07 00:58:09;;;;;;;192.80;71.20;;;;;;;-2.67;100.00;99488.96;104020;1284;60585;-31
2023/12/07 01:00:35;;;;;;;172.60;65.10;;;;;;;-2.65;100.00;99489.16;103751;1283;73104;-32
2023/12/07 01:03:00;;;;;;;177.50;63.90;;;;;;;-2.72;100.00;99491.42;103916;1285;60571;-30
2023/12/07 01:05:26;;;;;;;283.10;104.60;;;;;;;-2.76;100.00;99495.58;103932;1281;60586;-30
2023/12/07 01:07:52;;;;;;;238.10;92.90;;;;;;;-2.78;100.00;99497.95;103868;1281;60567;-30
2023/12/07 01:10:18;;;;;;;181.80;60.90;;;;;;;-2.79;100.00;99495.94;103901;1281;60561;-32
2023/12/07 01:12:43;;;;;;;274.90;118.60;;;;;;;-2.80;100.00;99499.89;103898;1283;60504;-33
2023/12/07 01:15:09;;;;;;;206.30;77.90;;;;;;;-2.83;100.00;99497.09;103978;1283;60597;-32
2023/12/07 01:17:35;;;;;;;187.10;65.40;;;;;;;-2.86;100.00;99499.59;103882;1284;60494;-30
2023/12/07 01:20:03;;;;;;;213.30;77.20;;;;;;;-2.88;100.00;99501.80;103841;1281;60437;-30
2023/12/07 01:22:29;;;;;;;175.70;61.50;;;;;;;-2.84;100.00;99505.73;103978;1283;74324;-35
2023/12/07 01:24:55;;;;;;;185.50;60.40;;;;;;;-2.78;100.00;99504.84;103903;1284;60354;-31
2023/12/07 01:27:21;;;;;;;;;;;;;;;-2.83;100.00;99503.91;103920;1283;60567;-31
2023/12/07 01:29:48;;;;;;;163.00;55.90;;;;;;;-2.84;100.00;99506.81;103865;1283;60571;-29
2023/12/07 01:32:14;;;;;;;204.30;73.40;;;;;;;-2.85;100.00;99504.27;104045;1282;60542;-30
2023/12/07 01:34:40;;;;;;;187.40;62.80;;;;;;;-2.88;100.00;99506.02;103935;1282;60481;-30
2023/12/07 01:37:06;;;;;;;219.80;85.30;;;;;;;-2.85;100.00;99509.65;103865;1283;60569;-30
2023/12/07 01:39:31;;;;;;;338.30;141.60;;;;;;;-2.81;100.00;99509.56;104036;1282;60895;-33
2023/12/07 01:41:58;;;;;;;183.00;64.10;;;;;;;-2.77;100.00;99506.18;103906;1281;60593;-30
2023/12/07 01:44:25;;;;;;;178.00;58.10;;;;;;;-2.77;100.00;99507.91;103788;1280;61017;-32
2023/12/07 01:46:51;;;;;;;170.50;60.70;;;;;;;-2.80;100.00;99513.17;103937;1280;60633;-30
2023/12/07 01:49:17;;;;;;;158.60;52.50;;;;;;;-2.79;100.00;99512.41;103995;1283;60565;-32
2023/12/07 01:51:43;;;;;;;158.20;53.20;;;;;;;-2.76;100.00;99512.52;104027;1283;60584;-30
2023/12/07 02:34:27;;;;;;;251.10;84.80;;;;;;;-3.24;100.00;99529.76;103560;1285;613050;-31
2023/12/07 02:36:53;;;;;;;276.60;108.60;;;;;;;-3.11;100.00;99532.70;103738;1279;104735;-31
2023/12/07 02:39:19;;;;;;;399.10;168.10;;;;;;;-3.09;100.00;99534.67;103719;1282;59241;-32
2023/12/07 02:41:44;;;;;;;321.80;129.90;;;;;;;-3.08;100.00;99535.45;103906;1285;59249;-33
2023/12/07 02:44:11;;;;;;;261.70;99.90;;;;;;;-3.06;100.00;99536.17;103706;1285;60044;-33
2023/12/07 02:46:37;;;;;;;;;;;;;;;-3.05;100.00;99537.38;103817;1285;59330;-30
2023/12/07 02:49:03;;;;;;;255.60;107.40;;;;;;;-3.03;100.00;99537.91;103728;1285;60881;-30
2023/12/07 02:51:28;;;;;;;152.60;49.30;;;;;;;-3.00;100.00;99544.05;103631;1285;59367;-30
2023/12/07 02:53:54;;;;;;;164.50;60.70;;;;;;;-3.04;100.00;99542.36;103698;1283;59355;-29
2023/12/07 02:56:20;;;;;;;174.80;62.80;;;;;;;-3.05;100.00;99543.82;103714;1285;59345;-32
2023/12/07 02:58:46;;;;;;;139.20;46.60;;;;;;;-3.04;100.00;99544.68;103668;1283;70332;-32
2023/12/07 03:01:12;;;;;;;145.70;47.60;;;;;;;-2.97;100.00;99546.09;103692;1285;59708;-30
2023/12/07 03:03:40;;;;;;;144.80;46.70;;;;;;;-2.93;100.00;99544.23;103690;1289;59714;-30
2023/12/07 03:06:06;;;;;;;148.10;48.20;;;;;;;-2.92;100.00;99540.27;103809;1285;59566;-32
2023/12/07 03:08:31;;;;;;;124.80;43.60;;;;;;;-2.94;100.00;99536.45;103804;1282;59753;-31
2023/12/07 03:10:57;;;;;;;150.00;46.80;;;;;;;-2.94;100.00;99539.95;103717;1285;59754;-32
2023/12/07 03:13:23;;;;;;;161.80;50.00;;;;;;;-3.01;100.00;99540.39;103648;1282;59736;-29
2023/12/07 03:15:49;;;;;;;156.70;47.80;;;;;;;-3.04;100.00;99543.80;103742;1285;60233;-32
2023/12/07 03:18:14;;;;;;;155.20;53.00;;;;;;;-3.05;100.00;99542.80;103727;1283;59747;-31
2023/12/07 03:20:41;;;;;;;147.60;50.80;;;;;;;-3.06;100.00;99541.48;103707;1283;59775;-33
2023/12/07 03:23:07;;;;;;;140.00;50.30;;;;;;;-3.08;100.00;99546.48;103932;1283;59650;-31
2023/12/07 03:25:33;;;;;;;167.10;62.80;;;;;;;-3.01;100.00;99546.73;103705;1285;59690;-32
2023/12/07 03:27:59;;;;;;;174.40;58.80;;;;;;;-2.98;100.00;99548.12;103712;1285;59659;-30
2023/12/07 03:30:25;;;;;;;166.30;62.80;;;;;;;-2.97;100.00;99550.11;103770;1286;59759;-32
2023/12/07 03:32:51;;;;;;;145.50;47.20;;;;;;;-2.97;100.00;99557.33;103739;1285;59670;-31
2023/12/07 03:35:17;;;;;;;154.00;49.70;;;;;;;-2.92;100.00;99560.50;103816;1284;59825;-33
2023/12/07 03:37:42;;;;;;;145.20;47.80;;;;;;;-2.91;100.00;99563.71;103744;1283;59703;-31
2023/12/07 03:40:09;;;;;;;132.00;44.70;;;;;;;-2.88;100.00;99564.34;103662;1285;59753;-33
2023/12/07 03:42:35;;;;;;;138.60;46.20;;;;;;;-2.87;100.00;99564.34;103649;1288;59966;-31
2023/12/07 03:45:00;;;;;;;143.60;46.10;;;;;;;-2.87;100.00;99567.80;103765;1282;59737;-33
2023/12/07 03:47:27;;;;;;;136.70;48.30;;;;;;;-2.89;100.00;99567.08;103610;1284;59823;-30
2023/12/07 03:49:53;;;;;;;149.50;47.80;;;;;;;-2.91;100.00;99570.69;103684;1287;59754;-31
2023/12/07 03:52:19;;;;;;;127.50;44.10;;;;;;;-2.96;100.00;99568.11;103821;1288;59711;-32
2023/12/07 03:54:45;;;;;;;124.90;43.50;;;;;;;-2.98;100.00;99571.90;103675;1288;59705;-32
2023/12/07 03:57:11;;;;;;;138.60;46.70;;;;;;;-3.01;100.00;99577.40;103626;1285;59763;-31
2023/12/07 03:59:37;;;;;;;130.10;43.90;;;;;;;-3.01;100.00;99585.08;103640;1285;59820;-32
2023/12/07 04:02:02;;;;;;;127.00;42.20;;;;;;;-2.97;100.00;99581.98;103728;1286;59764;-32
2023/12/07 04:04:28;;;;;;;107.80;36.80;;;;;;;-2.92;100.00;99581.50;103731;1285;73419;-31
2023/12/07 04:06:54;;;;;;;;;;;;;;;-2.87;100.00;99585.70;103797;1291;59624;-31
2023/12/07 04:09:20;;;;;;;134.00;44.90;;;;;;;-2.86;100.00;99587.73;103756;1285;59774;-33
2023/12/07 04:11:46;;;;;;;147.10;46.70;;;;;;;-2.91;100.00;99592.48;103673;1285;59764;-32
2023/12/07 04:14:13;;;;;;;137.20;46.60;;;;;;;-2.97;100.00;99600.26;103769;1284;59641;-31
2023/12/07 04:16:38;;;;;;;140.70;46.80;;;;;;;-3.00;100.00;99602.52;103643;1286;59775;-32
2023/12/07 04:19:04;;;;;;;;;;;;;;;-3.00;100.00;99600.08;103754;1289;59849;-33
2023/12/07 04:21:30;;;;;;;150.40;49.80;;;;;;;-3.02;100.00;99601.48;103893;1282;59765;-30
2023/12/07 04:23:56;;;;;;;175.30;53.80;;;;;;;-2.96;100.00;99601.55;103696;1285;60232;-32
2023/12/07 04:26:22;;;;;;;151.30;49.30;;;;;;;-2.95;100.00;99603.23;103848;1288;59688;-30
2023/12/07 04:28:48;;;;;;;149.60;47.70;;;;;;;-2.96;100.00;99604.16;103833;1282;59747;-29
2023/12/07 04:31:14;;;;;;;138.40;43.40;;;;;;;-2.95;100.00;99606.58;103640;1286;73505;-31
2023/12/07 04:33:40;;;;;;;157.80;47.70;;;;;;;-2.97;100.00;99605.52;103680;1285;59704;-31
2023/12/07 04:36:06;;;;;;;139.10;44.30;;;;;;;-2.94;100.00;99609.13;103799;1283;59744;-31
2023/12/07 04:38:32;;;;;;;145.20;45.30;;;;;;;-2.94;100.00;99611.41;103753;1285;59684;-29
2023/12/07 04:40:58;;;;;;;144.50;44.40;;;;;;;-2.91;100.00;99614.86;103587;1283;59835;-30
2023/12/07 04:43:24;;;;;;;132.40;43.90;;;;;;;-2.90;100.00;99617.43;103675;1283;59786;-29
2023/12/07 04:45:49;;;;;;;110.50;37.90;;;;;;;-2.95;100.00;99616.06;103762;1287;59763;-33
2023/12/07 04:48:15;;;;;;;112.20;37.50;;;;;;;-2.93;100.00;99623.59;103810;1282;59730;-29
2023/12/07 04:50:41;;;;;;;100.10;35.50;;;;;;;-2.92;100.00;99621.90;103006;1286;1003339;-32
2023/12/07 04:53:07;;;;;;;132.70;42.80;;;;;;;-2.83;100.00;99619.42;103705;1286;59648;-30
2023/12/07 04:55:33;;;;;;;152.30;46.00;;;;;;;-2.79;100.00;99623.32;103803;1286;59848;-30
2023/12/07 04:57:58;;;;;;;121.50;39.60;;;;;;;-2.78;100.00;99623.44;103847;1282;73303;-31
2023/12/07 05:00:24;;;;;;;119.70;37.80;;;;;;;-2.73;100.00;99618.21;103787;1286;59705;-29
2023/12/07 05:02:50;;;;;;;117.20;38.60;;;;;;;-2.67;100.00;99619.86;103589;1287;59772;-30
2023/12/07 05:05:16;;;;;;;131.70;42.60;;;;;;;-2.63;100.00;99618.38;103620;1283;59628;-30
2023/12/07 05:07:43;;;;;;;108.30;36.60;;;;;;;-2.65;100.00;99617.11;103662;1281;59667;-31
2023/12/07 05:10:09;;;;;;;;;;;;;;;-2.66;100.00;99624.54;103831;1285;59688;-32
2023/12/07 05:12:35;;;;;;;143.90;44.20;;;;;;;-2.67;100.00;99632.13;103747;1283;59691;-29
2023/12/07 05:15:04;;;;;;;147.90;43.80;;;;;;;-2.68;100.00;99636.90;103756;1286;59726;-31
2023/12/07 05:17:29;;;;;;;170.90;52.00;;;;;;;-2.64;100.00;99632.95;103754;1283;72441;-33
2023/12/07 05:19:55;;;;;;;134.90;44.80;;;;;;;-2.65;100.00;99635.84;103858;1284;59766;-32
2023/12/07 05:22:21;;;;;;;125.30;41.40;;;;;;;-2.64;100.00;99637.73;103667;1282;59799;-31
2023/12/07 05:24:47;;;;;;;127.30;41.70;;;;;;;-2.54;100.00;99638.09;103734;1283;59746;-33
2023/12/07 05:27:13;;;;;;;133.00;41.20;;;;;;;-2.55;100.00;99640.45;103744;1286;59852;-31
2023/12/07 05:29:39;;;;;;;165.20;49.70;;;;;;;-2.60;100.00;99643.91;103842;1282;59756;-31
2023/12/07 05:32:05;;;;;;;128.90;42.00;;;;;;;-2.62;100.00;99649.30;103598;1285;59774;-31
2023/12/07 05:34:31;;;;;;;138.50;42.60;;;;;;;-2.60;100.00;99653.73;103812;1286;59750;-32
2023/12/07 05:36:57;;;;;;;116.90;40.60;;;;;;;-2.62;100.00;99657.02;103919;1286;59778;-30
2023/12/07 05:39:23;;;;;;;151.70;49.70;;;;;;;-2.61;100.00;99663.08;103792;1285;59751;-29
2023/12/07 05:41:48;;;;;;;166.20;58.00;;;;;;;-2.51;100.00;99661.13;103716;1283;70304;-33
2023/12/07 05:44:21;;;;;;;207.30;67.70;;;;;;;-2.42;100.00;99657.36;103712;1282;59768;-31
2023/12/07 05:46:47;;;;;;;221.10;72.10;;;;;;;-2.41;100.00;99657.85;103701;1282;59695;-30
2023/12/07 05:49:13;;;;;;;220.50;72.90;;;;;;;-2.46;100.00;99659.75;103643;1286;59905;-30
2023/12/07 05:51:39;;;;;;;181.50;61.10;;;;;;;-2.42;100.00;99657.23;103491;1285;59765;-30
2023/12/07 05:54:05;;;;;;;143.20;48.20;;;;;;;-2.35;100.00;99661.45;103633;1283;59770;-32
2023/12/07 05:56:31;;;;;;;130.10;41.50;;;;;;;-2.42;100.00;99660.33;103715;1282;59768;-31
2023/12/07 05:58:57;;;;;;;129.30;42.70;;;;;;;-2.50;100.00;99664.47;103665;1282;59777;-32
2023/12/07 06:01:24;;;;;;;;;;;;;;;-2.57;100.00;99666.52;103727;1283;59657;-32
2023/12/07 06:03:50;;;;;;;104.70;36.60;;;;;;;-2.64;100.00;99661.17;103637;1287;59648;-32
2023/12/07 06:06:16;;;;;;;139.90;47.50;;;;;;;-2.59;100.00;99663.68;103881;1282;59726;-30
2023/12/07 06:08:42;;;;;;;133.70;45.50;;;;;;;-2.55;100.00;99664.94;103619;1282;59781;-32
2023/12/07 06:11:08;;;;;;;130.30;43.40;;;;;;;-2.48;100.00;99670.11;103800;1283;59695;-35
2023/12/07 06:13:34;;;;;;;151.70;50.10;;;;;;;-2.45;100.00;99670.36;103499;1282;59765;-30
2023/12/07 06:16:01;;;;;;;165.40;54.90;;;;;;;-2.45;100.00;99678.95;103754;1283;60305;-30
2023/12/07 06:18:27;;;;;;;174.70;57.90;;;;;;;-2.45;100.00;99680.92;103666;1283;61264;-29
2023/12/07 06:20:53;;;;;;;150.20;50.50;;;;;;;-2.35;100.00;99677.79;103735;1283;59657;-30
2023/12/07 06:23:19;;;;;;;188.90;72.90;;;;;;;-2.35;100.00;99681.27;103818;1282;59727;-32
2023/12/07 06:25:46;;;;;;;144.30;54.00;;;;;;;-2.40;100.00;99681.11;103725;1286;60042;-32
2023/12/07 06:28:12;;;;;;;145.80;54.10;;;;;;;-2.43;100.00;99682.48;103621;1285;59634;-32
2023/12/07 06:30:38;;;;;;;246.90;92.80;;;;;;;-2.44;100.00;99685.20;103728;1284;59820;-30
2023/12/07 06:33:04;;;;;;;132.40;45.10;;;;;;;-2.50;100.00;99686.00;102970;1287;1004353;-32
2023/12/07 06:35:30;;;;;;;128.90;45.90;;;;;;;-2.56;100.00;99687.31;103801;1285;59902;-30
2023/12/07 06:37:56;;;;;;;113.40;38.60;;;;;;;-2.59;100.00;99686.08;103825;1286;60520;-31
2023/12/07 06:40:22;;;;;;;132.00;44.00;;;;;;;-2.54;100.00;99689.64;103670;1283;60473;-32
2023/12/07 06:42:51;;;;;;;129.10;45.40;;;;;;;-2.52;100.00;99695.77;103756;1285;60558;-31
2023/12/07 06:45:16;;;;;;;127.30;42.60;;;;;;;-2.52;100.00;99698.77;103772;1282;60559;-31
2023/12/07 06:47:43;;;;;;;125.80;42.30;;;;;;;-2.49;100.00;99702.03;103746;1282;60600;-31
2023/12/07 06:50:12;;;;;;;119.80;42.10;;;;;;;-2.45;100.00;99702.31;103447;1283;60579;-30
2023/12/07 06:52:39;;;;;;;149.60;46.70;;;;;;;-2.40;100.00;99699.32;103643;1282;69578;-32
2023/12/07 06:55:05;;;;;;;151.50;45.50;;;;;;;-2.36;100.00;99699.40;103633;1284;72497;-30
2023/12/07 06:57:31;;;;;;;166.20;53.50;;;;;;;-2.25;100.00;99703.02;103689;1282;60517;-32
2023/12/07 06:59:57;;;;;;;;;;;;;;;-2.15;100.00;99697.39;103697;1287;60594;-31
2023/12/07 07:02:23;;;;;;;166.00;62.20;;;;;;;-2.21;100.00;99703.25;103691;1283;60559;-31
2023/12/07 07:04:50;;;;;;;176.80;65.00;;;;;;;-2.27;100.00;99704.90;103674;1286;60535;-29
2023/12/07 07:07:16;;;;;;;144.80;50.70;;;;;;;-2.34;100.00;99708.20;103738;1285;60520;-30
2023/12/07 07:09:41;;;;;;;124.00;43.50;;;;;;;-2.37;100.00;99713.46;103494;1288;60569;-33
2023/12/07 07:12:08;;;;;;;187.80;72.20;;;;;;;-2.25;100.00;99715.66;103692;1283;60497;-32
2023/12/07 07:14:34;;;;;;;154.40;53.60;;;;;;;-2.21;100.00;99715.92;103758;1284;60642;-32
2023/12/07 07:17:00;;;;;;;149.50;52.80;;;;;;;-2.23;100.00;99716.53;103793;1283;60568;-30
2023/12/07 07:19:26;;;;;;;141.30;49.30;;;;;;;-2.25;100.00;99722.17;103686;1282;60463;-33
2023/12/07 07:21:51;;;;;;;139.90;47.00;;;;;;;-2.20;100.00;99725.64;103836;1282;60588;-30
2023/12/07 07:24:17;;;;;;;;;;;;;;;-2.11;100.00;99721.45;103702;1285;60364;-29
2023/12/07 07:26:43;;;;;;;132.00;44.40;;;;;;;-2.03;100.00;99720.06;102297;1286;1002973;-30
2023/12/07 07:29:09;;;;;;;130.80;46.80;;;;;;;-2.04;100.00;99727.01;103662;1283;60366;-30
2023/12/07 07:31:36;;;;;;;137.60;48.10;;;;;;;-2.06;100.00;99730.27;103684;1285;60501;-30
2023/12/07 07:34:02;;;;;;;153.10;51.30;;;;;;;-2.15;100.00;99729.70;103802;1282;68426;-31
2023/12/07 07:36:29;;;;;;;143.10;47.10;;;;;;;-2.08;100.00;99734.65;103780;1282;72920;-32
2023/12/07 07:38:55;;;;;;;150.50;49.80;;;;;;;-1.97;100.00;99736.11;103644;1282;60482;-31
2023/12/07 07:41:21;;;;;;;146.60;48.90;;;;;;;-1.94;100.00;99735.24;103760;1282;60548;-33
2023/12/07 07:43:47;;;;;;;;;;;;;;;-1.80;100.00;99737.39;103712;1281;60561;-31
2023/12/07 07:46:13;;;;;;;121.30;41.20;;;;;;;-1.63;100.00;99734.44;103693;1282;61943;-33
2023/12/07 07:48:39;;;;;;;134.60;45.50;;;;;;;-1.72;100.00;99737.02;103769;1282;60508;-29
2023/12/07 07:51:05;;;;;;;113.20;38.50;;;;;;;-1.80;100.00;99738.07;103702;1288;60488;-31
2023/12/07 07:53:30;;;;;;;122.20;40.80;;;;;;;-1.80;100.00;99738.09;103681;1286;60492;-31
2023/12/07 07:55:56;;;;;;;133.20;43.70;;;;;;;-1.69;100.00;99738.14;103598;1286;60575;-31
2023/12/07 07:58:22;;;;;;;126.30;42.60;;;;;;;-1.54;100.00;99739.01;103632;1283;60562;-30
2023/12/07 08:00:48;;;;;;;148.40;45.30;;;;;;;-1.50;100.00;99743.27;103749;1287;60562;-31
2023/12/07 08:03:13;;;;;;;146.20;48.30;;;;;;;-1.47;100.00;99741.83;103647;1283;72839;-29
2023/12/07 08:05:40;;;;;;;145.70;46.50;;;;;;;-1.37;100.00;99739.52;103827;1286;60528;-32
2023/12/07 08:08:07;;;;;;;141.40;46.40;;;;;;;-1.36;100.00;99741.59;103749;1286;60554;-32
2023/12/07 08:10:33;;;;;;;205.60;63.50;;;;;;;-1.33;100.00;99742.42;103652;1286;60494;-30
2023/12/07 08:12:59;;;;;;;158.60;52.00;;;;;;;-1.21;100.00;99739.06;103729;1283;60418;-32
2023/12/07 08:15:24;;;;;;;148.60;48.40;;;;;;;-1.15;100.00;99740.17;103736;1288;60564;-33
2023/12/07 08:17:50;;;;;;;136.70;45.70;;;;;;;-1.20;100.00;99745.13;103633;1285;60550;-32
2023/12/07 08:20:16;;;;;;;;;;;;;;;-1.18;100.00;99742.16;103827;1282;60564;-30
2023/12/07 08:22:43;;;;;;;124.20;43.90;;;;;;;-1.14;100.00;99750.88;103794;1282;60484;-32
2023/12/07 08:25:10;;;;;;;144.10;43.80;;;;;;;-1.09;100.00;99753.66;103767;1285;60584;-30
2023/12/07 08:27:39;;;;;;;126.80;41.70;;;;;;;-1.10;100.00;99755.66;103747;1282;60511;-32
2023/12/07 08:30:05;;;;;;;141.20;44.90;;;;;;;-1.19;100.00;99758.92;103776;1283;68300;-31
2023/12/07 08:32:31;;;;;;;128.50;42.10;;;;;;;-1.13;100.00;99758.03;103660;1283;72192;-32
2023/12/07 08:34:57;;;;;;;143.50;46.90;;;;;;;-1.04;100.00;99757.65;103720;1288;60604;-31
2023/12/07 08:37:22;;;;;;;141.20;44.20;;;;;;;-0.94;100.00;99759.39;103816;1285;60537;-32
2023/12/07 08:39:48;;;;;;;135.50;44.40;;;;;;;-0.80;100.00;99762.74;103604;1286;60536;-33
2023/12/07 08:42:14;;;;;;;;;;;;;;;-0.67;100.00;99764.94;103812;1283;60479;-31
2023/12/07 08:44:40;;;;;;;141.10;44.80;;;;;;;-0.61;100.00;99768.30;103759;1285;60488;-33
2023/12/07 08:47:06;;;;;;;142.10;45.10;;;;;;;-0.50;100.00;99767.10;103661;1286;60491;-34
2023/12/07 08:49:32;;;;;;;136.40;44.20;;;;;;;-0.45;100.00;99774.84;103741;1282;60430;-31
2023/12/07 08:51:58;;;;;;;132.60;43.90;;;;;;;-0.56;100.00;99778.66;103697;1282;60457;-30
2023/12/07 08:54:24;;;;;;;130.50;43.70;;;;;;;-0.67;100.00;99781.11;103748;1282;60575;-34
2023/12/07 08:56:51;;;;;;;144.80;46.60;;;;;;;-0.86;100.00;99785.65;103770;1283;60498;-33
2023/12/07 08:59:16;;;;;;;126.90;42.60;;;;;;;-0.87;100.00;99786.14;103609;1283;72271;-31
2023/12/07 09:01:42;;;;;;;137.90;45.70;;;;;;;-0.92;100.00;99785.41;103570;1284;60551;-33
2023/12/07 09:04:08;;;;;;;137.30;44.50;;;;;;;-0.85;100.00;99793.52;103689;1286;60510;-33
2023/12/07 09:06:34;;;;;;;145.30;44.90;;;;;;;-0.88;100.00;99793.94;103675;1286;60557;-33
2023/12/07 09:09:00;;;;;;;142.60;47.80;;;;;;;-1.05;100.00;99792.86;103742;1285;60550;-32
2023/12/07 09:11:27;;;;;;;250.70;80.00;;;;;;;-0.94;100.00;99786.64;103747;1285;60568;-31
2023/12/07 09:13:53;;;;;;;169.90;53.20;;;;;;;-0.82;100.00;99786.29;103746;1285;60585;-32
2023/12/07 09:16:19;;;;;;;228.50;62.30;;;;;;;-0.70;100.00;99783.23;103766;1282;60597;-31
2023/12/07 09:18:46;;;;;;;245.20;75.00;;;;;;;-0.69;100.00;99781.59;103725;1282;60512;-33
2023/12/07 09:21:12;;;;;;;204.10;64.00;;;;;;;-0.68;100.00;99783.59;103769;1282;60507;-31
2023/12/07 09:23:40;;;;;;;329.70;93.10;;;;;;;-0.63;100.00;99786.96;103758;1282;60552;-31
2023/12/07 09:26:06;;;;;;;216.30;72.70;;;;;;;-0.61;100.00;99785.59;103724;1282;60553;-30
2023/12/07 09:28:33;;;;;;;147.60;48.40;;;;;;;-0.69;100.00;99788.98;103688;1282;60501;-32
2023/12/07 09:30:59;;;;;;;131.30;43.80;;;;;;;-0.70;100.00;99786.78;103686;1282;60578;-31
2023/12/07 09:33:24;;;;;;;145.80;48.60;;;;;;;-0.70;100.00;99785.36;103725;1283;60475;-30
2023/12/07 09:35:51;;;;;;;129.70;42.40;;;;;;;-0.67;100.00;99778.46;103700;1282;60500;-32
2023/12/07 09:38:17;;;;;;;149.10;47.00;;;;;;;-0.80;100.00;99780.30;103642;1288;60578;-32
2023/12/07 09:40:43;;;;;;;135.50;40.70;;;;;;;-0.72;100.00;99772.83;103753;1282;60565;-33
2023/12/07 09:43:09;;;;;;;134.90;44.40;;;;;;;-0.70;100.00;99776.55;102225;1282;1003830;-30
2023/12/07 09:45:35;;;;;;;153.90;52.10;;;;;;;-0.49;100.00;99775.83;103714;1285;60559;-30
2023/12/07 09:48:02;;;;;;;161.40;54.60;;;;;;;-0.54;100.00;99773.20;103722;1286;60572;-32
2023/12/07 09:50:28;;;;;;;125.50;44.30;;;;;;;-0.53;100.00;99774.02;103687;1281;60591;-30
2023/12/07 09:52:56;;;;;;;124.10;41.50;;;;;;;-0.43;100.00;99771.85;103806;1285;60482;-32
2023/12/07 09:55:22;;;;;;;119.60;40.90;;;;;;;-0.36;100.00;99770.83;103660;1282;68341;-33
2023/12/07 09:57:48;;;;;;;;;;;;;;;-0.37;100.00;99769.63;103721;1285;60571;-31
2023/12/07 10:00:14;;;;;;;116.00;36.10;;;;;;;-0.44;100.00;99771.98;103722;1282;60494;-31
2023/12/07 10:02:41;;;;;;;125.40;41.80;;;;;;;-0.55;100.00;99771.57;103562;1282;60536;-34
2023/12/07 10:05:09;;;;;;;115.90;37.30;;;;;;;-0.57;100.00;99774.00;103663;1282;60562;-33
2023/12/07 10:07:37;;;;;;;125.40;42.30;;;;;;;-0.60;100.00;99766.48;103833;1282;73832;-33
2023/12/07 10:10:04;;;;;;;116.60;38.00;;;;;;;-0.46;100.00;99763.33;103811;1282;68256;-34
2023/12/07 10:12:34;;;;;;;123.20;39.50;;;;;;;-0.22;100.00;99762.20;103723;1282;72386;-33
2023/12/07 10:15:03;;;;;;;120.10;40.00;;;;;;;-0.34;100.00;99760.79;103664;1282;60527;-32
2023/12/07 10:17:47;;;;;;;116.20;37.50;;;;;;;-0.44;100.00;99757.35;103584;1283;60555;-32
2023/12/07 10:20:13;;;;;;;121.60;39.50;;;;;;;-0.36;100.00;99754.66;103521;1283;60450;-31
2023/12/07 10:22:39;;;;;;;118.50;41.80;;;;;;;-0.45;99.99;99749.83;103597;1282;73207;-29
2023/12/07 10:25:05;;;;;;;;;;;;;;;-0.19;100.00;99747.13;103755;1282;60549;-31
2023/12/07 10:27:31;;;;;;;113.90;39.10;;;;;;;0.00;100.00;99750.75;103750;1285;60492;-30
2023/12/07 10:29:58;;;;;;;114.90;40.10;;;;;;;0.13;100.00;99750.43;103702;1284;61318;-30
2023/12/07 10:32:25;;;;;;;111.10;39.40;;;;;;;0.18;100.00;99750.42;103674;1282;60620;-31
2023/12/07 10:34:52;;;;;;;112.30;37.40;;;;;;;0.29;100.00;99748.82;103661;1282;60458;-32
2023/12/07 10:37:18;;;;;;;123.30;41.00;;;;;;;0.42;99.94;99747.44;103764;1282;73172;-37
2023/12/07 10:39:44;;;;;;;106.00;35.20;;;;;;;0.53;99.95;99749.02;103614;1283;69519;-31
2023/12/07 10:42:12;;;;;;;108.50;39.20;;;;;;;0.78;100.00;99746.82;103529;1288;60547;-32
2023/12/07 10:44:42;;;;;;;108.80;38.30;;;;;;;0.77;99.78;99749.52;103721;1285;60459;-32
2023/12/07 10:47:10;;;;;;;107.80;40.60;;;;;;;0.87;99.63;99749.90;103715;1282;60391;-31
2023/12/07 10:49:36;;;;;;;112.70;39.30;;;;;;;0.78;99.28;99744.70;103643;1283;60475;-30
2023/12/07 10:52:03;;;;;;;;;;;;;;;0.79;98.59;99747.27;103718;1282;60574;-29
2023/12/07 10:54:33;;;;;;;116.30;40.30;;;;;;;0.67;96.53;99752.80;103727;1283;68243;-32
2023/12/07 10:57:03;;;;;;;110.20;39.20;;;;;;;0.44;96.58;99755.16;103596;1282;73113;-32
2023/12/07 10:59:29;;;;;;;110.90;39.30;;;;;;;0.33;97.32;99759.41;103695;1285;61957;-31
2023/12/07 11:01:55;;;;;;;118.70;40.40;;;;;;;0.34;97.66;99760.73;103619;1286;60574;-32
2023/12/07 11:04:21;;;;;;;115.20;41.10;;;;;;;0.25;97.28;99763.79;103711;1285;60549;-31
2023/12/07 11:06:48;;;;;;;120.80;42.10;;;;;;;0.13;97.55;99767.18;103754;1282;60553;-31
2023/12/07 11:09:19;;;;;;;111.20;40.70;;;;;;;0.09;97.83;99763.47;103661;1282;60459;-31
2023/12/07 11:11:55;;;;;;;125.70;42.80;;;;;;;0.02;97.78;99764.46;103641;1282;73005;-32
2023/12/07 11:14:21;;;;;;;113.90;40.60;;;;;;;0.09;97.89;99764.55;103647;1282;60457;-30
2023/12/07 11:16:47;;;;;;;111.50;39.30;;;;;;;-0.01;98.62;99765.44;103755;1282;60501;-32
2023/12/07 11:19:45;;;;;;;112.60;40.40;;;;;;;-0.01;99.18;99760.40;103719;1282;60597;-31
2023/12/07 11:22:12;;;;;;;127.70;43.60;;;;;;;0.03;99.99;99757.05;103660;1282;74325;-30
2023/12/07 11:24:38;;;;;;;131.30;43.70;;;;;;;0.14;99.97;99755.98;103544;1283;68671;-34
2023/12/07 11:27:03;;;;;;;126.10;41.70;;;;;;;0.13;100.00;99754.48;103686;1285;60577;-32
2023/12/07 11:29:30;;;;;;;108.10;40.60;;;;;;;0.32;100.00;99753.66;103704;1282;60570;-30
2023/12/07 11:32:03;;;;;;;112.10;39.70;;;;;;;0.40;100.00;99753.95;103727;1282;60597;-33
2023/12/07 11:34:38;;;;;;;122.90;40.80;;;;;;;0.42;100.00;99751.67;103653;1282;60486;-33
2023/12/07 11:37:05;;;;;;;120.20;41.30;;;;;;;0.47;99.34;99751.10;103647;1282;74414;-43